createdAt,value
2023-08-22T00:04:14.618Z,72.18
2023-08-22T00:09:11.436Z,72.42
2023-08-22T00:14:08.178Z,72.56
2023-08-22T00:19:05.046Z,73.09
2023-08-22T00:24:02.212Z,72.88
2023-08-22T00:28:58.941Z,73.44
2023-08-22T00:33:55.703Z,73.17
2023-08-22T00:38:52.405Z,73.58
2023-08-22T00:43:49.224Z,73.18
2023-08-22T00:48:45.923Z,73.49
2023-08-22T00:53:43.176Z,73.30
2023-08-22T00:58:41.078Z,73.31
2023-08-22T01:03:37.947Z,73.42
2023-08-22T01:08:37.706Z,73.40
2023-08-22T01:13:38.538Z,73.89
2023-08-22T01:18:35.975Z,73.54
2023-08-22T01:23:32.844Z,73.70
2023-08-22T01:28:44.044Z,75.01
2023-08-22T01:33:48.307Z,74.42
2023-08-22T01:38:45.263Z,74.08
2023-08-22T01:43:44.486Z,74.94
2023-08-22T01:48:41.209Z,74.71
2023-08-22T01:53:37.981Z,74.88
2023-08-22T01:58:34.722Z,74.95
2023-08-22T02:03:31.488Z,75.15
2023-08-22T02:08:28.323Z,75.40
2023-08-22T02:13:25.190Z,75.81
2023-08-22T02:18:21.916Z,75.95
2023-08-22T02:23:18.661Z,76.60
2023-08-22T02:28:15.493Z,76.59
2023-08-22T02:33:12.452Z,76.58
2023-08-22T02:38:12.412Z,76.76
2023-08-22T02:43:09.216Z,77.15
2023-08-22T02:48:06.663Z,77.08
2023-08-22T02:53:04.239Z,77.48
2023-08-22T02:58:00.968Z,77.55
2023-08-22T03:02:57.976Z,77.54
2023-08-22T03:07:54.810Z,77.58
2023-08-22T03:12:51.771Z,77.60
2023-08-22T03:17:48.554Z,77.72
2023-08-22T03:22:45.323Z,77.81
2023-08-22T03:27:42.348Z,78.48
2023-08-22T03:32:39.509Z,78.56
2023-08-22T03:37:36.747Z,78.67
2023-08-22T03:42:33.539Z,79.20
2023-08-22T03:47:30.250Z,79.03
2023-08-22T03:52:27.152Z,79.18
2023-08-22T03:57:23.885Z,79.58
2023-08-22T04:02:20.908Z,79.85
2023-08-22T04:07:17.753Z,79.72
2023-08-22T04:12:14.468Z,79.82
2023-08-22T04:17:11.179Z,79.99
2023-08-22T04:22:08.218Z,80.11
2023-08-22T04:27:05.171Z,80.14
2023-08-22T04:32:05.034Z,79.90
2023-08-22T04:37:01.796Z,79.81
2023-08-22T04:41:58.557Z,79.94
2023-08-22T04:46:55.302Z,80.01
2023-08-22T04:51:52.030Z,79.86
2023-08-22T04:56:48.787Z,80.16
2023-08-22T05:01:45.619Z,80.05
2023-08-22T05:06:42.416Z,80.48
2023-08-22T05:11:39.215Z,80.47
2023-08-22T05:16:36.931Z,80.81
2023-08-22T05:21:34.147Z,80.91
2023-08-22T05:26:30.917Z,80.99
2023-08-22T05:31:28.020Z,81.09
2023-08-22T05:36:24.843Z,81.14
2023-08-22T05:41:21.919Z,81.40
2023-08-22T05:46:18.711Z,81.48
2023-08-22T05:51:15.470Z,81.70
2023-08-22T05:56:12.197Z,81.91
2023-08-22T06:01:11.123Z,81.83
2023-08-22T06:06:08.014Z,81.75
2023-08-22T06:11:04.791Z,81.97
2023-08-22T06:16:01.575Z,82.32
2023-08-22T06:21:01.756Z,82.67
2023-08-22T06:25:58.538Z,82.25
2023-08-22T06:30:55.519Z,82.29
2023-08-22T06:35:52.378Z,82.61
2023-08-22T06:40:49.085Z,82.17
2023-08-22T06:45:45.969Z,81.97
2023-08-22T06:50:43.254Z,82.17
2023-08-22T06:55:39.993Z,81.86
2023-08-22T07:00:37.128Z,81.95
2023-08-22T07:05:36.190Z,81.68
2023-08-22T07:10:33.595Z,81.44
2023-08-22T07:15:30.777Z,81.11
2023-08-22T07:20:27.493Z,80.74
2023-08-22T07:25:24.232Z,80.57
2023-08-22T07:30:21.000Z,80.30
2023-08-22T07:35:17.763Z,79.86
2023-08-22T07:40:15.403Z,79.93
2023-08-22T07:45:12.247Z,79.26
2023-08-22T07:50:09.450Z,78.95
2023-08-22T07:55:06.602Z,79.28
2023-08-22T08:00:09.413Z,78.87
2023-08-22T08:05:06.956Z,78.21
2023-08-22T08:10:05.470Z,77.05
2023-08-22T08:15:02.325Z,76.51
2023-08-22T08:19:59.442Z,75.91
2023-08-22T08:24:56.213Z,74.43
2023-08-22T08:29:53.741Z,73.58
2023-08-22T08:34:50.459Z,72.82
2023-08-22T08:39:47.364Z,72.03
2023-08-22T08:44:44.257Z,71.30
2023-08-22T08:49:41.331Z,70.54
2023-08-22T08:54:38.272Z,70.57
2023-08-22T08:59:35.133Z,68.50
2023-08-22T09:04:31.898Z,67.19
2023-08-22T09:09:34.585Z,66.18
2023-08-22T09:14:31.563Z,65.22
2023-08-22T09:19:33.381Z,63.50
2023-08-22T09:24:31.075Z,63.44
2023-08-22T09:29:32.237Z,62.69
2023-08-22T09:34:29.693Z,61.89
2023-08-22T09:39:26.820Z,60.31
2023-08-22T09:44:25.439Z,60.55
2023-08-22T09:49:23.438Z,59.16
2023-08-22T09:54:20.554Z,59.30
2023-08-22T09:59:18.893Z,58.91
2023-08-22T10:04:18.603Z,58.78
2023-08-22T10:09:17.469Z,58.12
2023-08-22T10:14:20.338Z,57.86
2023-08-22T10:19:19.593Z,57.59
2023-08-22T10:24:22.576Z,54.93
2023-08-22T10:29:19.659Z,55.36
2023-08-22T10:34:16.396Z,53.96
2023-08-22T10:44:33.877Z,50.77
2023-08-22T10:49:31.993Z,48.56
2023-08-22T10:54:30.684Z,46.97
2023-08-22T10:59:27.410Z,45.72
2023-08-22T11:04:24.435Z,45.03
2023-08-22T11:09:21.678Z,44.23
2023-08-22T11:14:18.404Z,43.85
2023-08-22T11:19:18.407Z,43.32
2023-08-22T11:24:15.201Z,42.87
2023-08-22T11:29:11.942Z,42.80
2023-08-22T11:34:08.656Z,42.43
2023-08-22T11:39:06.301Z,41.34
2023-08-22T11:44:03.019Z,40.51
2023-08-22T11:49:06.142Z,38.49
2023-08-22T11:54:03.175Z,40.12
2023-08-22T11:59:00.570Z,39.56
2023-08-22T12:03:58.270Z,39.62
2023-08-22T12:08:57.357Z,38.46
2023-08-22T12:13:54.718Z,38.93
2023-08-22T12:18:51.671Z,39.57
2023-08-22T12:23:50.730Z,39.41
2023-08-22T12:28:47.630Z,39.21
2023-08-22T12:33:44.468Z,39.30
2023-08-22T12:38:41.211Z,39.15
2023-08-22T12:43:37.976Z,38.52
2023-08-22T12:48:36.848Z,37.50
2023-08-22T12:53:33.588Z,38.21
2023-08-22T12:58:31.661Z,37.19
2023-08-22T13:03:28.608Z,37.12
2023-08-22T13:08:26.711Z,37.83
2023-08-22T13:13:23.617Z,38.34
2023-08-22T13:18:20.403Z,38.23
2023-08-22T13:23:17.143Z,37.93
2023-08-22T13:28:14.195Z,37.76
2023-08-22T13:33:11.126Z,37.43
2023-08-22T13:38:07.916Z,37.11
2023-08-22T13:43:05.091Z,36.59
2023-08-22T13:48:04.676Z,36.44
2023-08-22T13:53:01.749Z,35.61
2023-08-22T13:57:58.612Z,35.76
2023-08-22T14:02:55.580Z,35.83
2023-08-22T14:07:52.311Z,34.54
2023-08-22T14:12:49.010Z,33.86
2023-08-22T14:17:45.943Z,33.50
2023-08-22T14:22:43.499Z,32.91
2023-08-22T14:27:40.549Z,32.67
2023-08-22T14:32:37.277Z,32.53
2023-08-22T14:37:34.847Z,32.06
2023-08-22T14:42:31.558Z,31.57
2023-08-22T14:47:28.298Z,31.89
2023-08-22T14:52:25.084Z,31.23
2023-08-22T14:57:22.128Z,31.16
2023-08-22T15:02:18.865Z,31.39
2023-08-22T15:07:15.579Z,31.12
2023-08-22T15:12:12.327Z,31.09
2023-08-22T15:17:09.070Z,30.72
2023-08-22T15:22:05.964Z,31.32
2023-08-22T15:27:02.762Z,31.37
2023-08-22T15:31:59.514Z,30.90
2023-08-22T15:36:56.244Z,31.30
2023-08-22T15:41:52.969Z,31.32
2023-08-22T15:46:49.753Z,31.22
2023-08-22T15:51:46.636Z,31.98
2023-08-22T15:56:43.415Z,31.61
2023-08-22T16:01:40.148Z,31.80
2023-08-22T16:06:36.968Z,31.87
2023-08-22T16:11:33.683Z,31.90
2023-08-22T16:16:30.422Z,31.36
2023-08-22T16:21:27.189Z,31.36
2023-08-22T16:26:24.258Z,30.56
2023-08-22T16:31:21.476Z,31.24
2023-08-22T16:36:18.282Z,31.78
2023-08-22T16:41:15.060Z,31.92
2023-08-22T16:46:11.863Z,32.00
2023-08-22T16:51:09.333Z,32.20
2023-08-22T16:56:06.061Z,32.77
2023-08-22T17:01:02.806Z,33.03
2023-08-22T17:05:59.617Z,33.29
2023-08-22T17:11:04.761Z,33.53
2023-08-22T17:16:01.652Z,34.30
2023-08-22T17:20:58.476Z,34.74
2023-08-22T17:26:13.201Z,35.25
2023-08-22T17:31:11.684Z,35.69
2023-08-22T17:36:11.146Z,35.64
2023-08-22T17:41:09.648Z,36.22
2023-08-22T17:46:06.570Z,36.78
2023-08-22T17:51:04.696Z,37.27
2023-08-22T17:56:01.443Z,37.63
2023-08-22T18:00:58.188Z,38.36
2023-08-22T18:06:00.307Z,38.87
2023-08-22T18:10:58.868Z,39.49
2023-08-22T18:16:10.056Z,40.01
2023-08-22T18:21:09.694Z,39.78
2023-08-22T18:26:09.064Z,40.01
2023-08-22T18:31:24.706Z,41.17
2023-08-22T18:36:24.543Z,40.88
2023-08-22T18:41:21.704Z,41.49
2023-08-22T18:46:19.345Z,42.04
2023-08-22T18:51:16.135Z,42.33
2023-08-22T18:56:12.897Z,43.12
2023-08-22T19:01:10.001Z,43.55
2023-08-22T19:06:06.792Z,44.21
2023-08-22T19:11:07.018Z,44.46
2023-08-22T19:16:07.330Z,45.44
2023-08-22T19:21:04.135Z,45.34
2023-08-22T19:26:02.196Z,45.96
2023-08-22T19:30:59.673Z,46.51
2023-08-22T19:35:57.186Z,46.88
2023-08-22T19:40:56.386Z,47.32
2023-08-22T19:45:53.233Z,47.69
2023-08-22T19:50:50.430Z,47.88
2023-08-22T19:55:48.113Z,48.30
2023-08-22T20:00:47.408Z,48.58
2023-08-22T20:05:45.734Z,49.16
2023-08-22T20:10:42.498Z,49.58
2023-08-22T20:15:39.325Z,49.79
2023-08-22T20:20:36.057Z,49.97
2023-08-22T20:25:35.688Z,50.29
2023-08-22T20:30:35.136Z,50.71
2023-08-22T20:35:32.121Z,50.86
2023-08-22T20:40:28.884Z,51.46
2023-08-22T20:45:25.777Z,51.95
2023-08-22T20:50:22.604Z,52.22
2023-08-22T20:55:19.322Z,52.70
2023-08-22T21:00:19.386Z,53.02
2023-08-22T21:05:17.213Z,53.45
2023-08-22T21:10:13.997Z,53.90
2023-08-22T21:15:11.149Z,54.08
2023-08-22T21:20:10.369Z,54.06
2023-08-22T21:25:08.145Z,54.58
2023-08-22T21:30:05.364Z,54.72
2023-08-22T21:35:02.143Z,54.91
2023-08-22T21:39:58.892Z,55.44
2023-08-22T21:44:55.661Z,55.62
2023-08-22T21:49:55.820Z,55.75
2023-08-22T21:54:52.567Z,56.25
2023-08-22T21:59:49.288Z,56.51
2023-08-22T22:04:46.035Z,56.56
2023-08-22T22:09:43.239Z,56.92
2023-08-22T22:14:40.033Z,57.40
2023-08-22T22:19:36.812Z,57.29
2023-08-22T22:24:33.597Z,58.00
2023-08-22T22:29:30.340Z,58.30
2023-08-22T22:34:27.171Z,58.47
2023-08-22T22:39:24.259Z,58.82
2023-08-22T22:44:21.014Z,59.19
2023-08-22T22:49:17.801Z,59.65
2023-08-22T22:54:14.540Z,59.81
2023-08-22T22:59:12.393Z,60.34
2023-08-22T23:04:09.229Z,60.90
2023-08-22T23:09:06.192Z,61.09
2023-08-22T23:14:03.001Z,61.21
2023-08-22T23:18:59.737Z,61.64
2023-08-22T23:23:56.497Z,61.82
2023-08-22T23:28:53.549Z,61.70
2023-08-22T23:33:50.601Z,62.14
2023-08-22T23:38:47.325Z,61.98
2023-08-22T23:43:44.114Z,62.14
2023-08-22T23:48:40.840Z,62.22
2023-08-22T23:53:37.562Z,62.27
2023-08-22T23:58:35.929Z,62.51
